createdAt,value
2018-04-30T00:00:54.604Z,45.10
2018-04-30T00:03:22.841Z,45.10
2018-04-30T00:05:51.080Z,45.10
2018-04-30T00:08:19.957Z,45.50
2018-04-30T00:10:48.845Z,45.60
2018-04-30T00:13:17.737Z,45.70
2018-04-30T00:15:46.615Z,45.60
2018-04-30T00:18:14.787Z,45.50
2018-04-30T00:20:42.938Z,45.60
2018-04-30T00:23:11.060Z,45.50
2018-04-30T00:25:39.188Z,45.10
2018-04-30T00:28:07.335Z,45.30
2018-04-30T00:30:35.521Z,45.20
2018-04-30T00:33:03.653Z,45.80
2018-04-30T00:35:32.156Z,45.30
2018-04-30T00:38:00.334Z,45.40
2018-04-30T00:40:28.481Z,45.40
2018-04-30T00:42:56.656Z,45.70
2018-04-30T00:45:24.803Z,46.00
2018-04-30T00:47:53.684Z,46.40
2018-04-30T00:50:21.885Z,46.30
2018-04-30T00:52:50.009Z,46.40
2018-04-30T00:55:18.128Z,46.70
2018-04-30T00:57:46.336Z,47.00
2018-04-30T01:00:14.656Z,47.40
2018-04-30T01:02:42.822Z,47.80
2018-04-30T01:05:11.746Z,48.60
2018-04-30T01:07:39.950Z,48.40
2018-04-30T01:10:08.122Z,48.70
2018-04-30T01:12:36.377Z,49.20
2018-04-30T01:15:04.474Z,49.30
2018-04-30T01:17:32.630Z,49.30
2018-04-30T01:20:01.066Z,49.80
2018-04-30T01:22:29.982Z,50.50
2018-04-30T01:24:58.122Z,50.50
2018-04-30T01:27:27.021Z,51.20
2018-04-30T01:29:55.942Z,51.30
2018-04-30T01:32:24.087Z,51.30
2018-04-30T01:34:53.011Z,52.20
2018-04-30T01:37:21.140Z,52.10
2018-04-30T01:39:50.168Z,52.40
2018-04-30T01:42:18.314Z,52.40
2018-04-30T01:44:47.240Z,53.10
2018-04-30T01:47:15.404Z,53.20
2018-04-30T01:49:43.519Z,53.80
2018-04-30T01:52:11.674Z,54.10
2018-04-30T01:54:39.813Z,54.80
2018-04-30T01:57:07.990Z,55.10
2018-04-30T01:59:36.132Z,55.60
2018-04-30T02:02:05.011Z,55.90
2018-04-30T02:04:33.246Z,55.90
2018-04-30T02:07:01.408Z,56.20
2018-04-30T02:09:29.541Z,56.40
2018-04-30T02:11:58.486Z,57.50
2018-04-30T02:14:26.645Z,57.50
2018-04-30T02:16:54.783Z,57.60
2018-04-30T02:19:23.717Z,57.90
2018-04-30T02:21:51.866Z,57.90
2018-04-30T02:24:20.015Z,57.80
2018-04-30T02:26:48.925Z,57.80
2018-04-30T02:29:17.133Z,57.80
2018-04-30T02:31:45.312Z,58.20
2018-04-30T02:34:13.470Z,58.40
2018-04-30T02:36:41.645Z,58.70
2018-04-30T02:39:09.785Z,58.70
2018-04-30T02:41:37.924Z,59.20
2018-04-30T02:44:06.086Z,59.40
2018-04-30T02:46:34.232Z,59.70
2018-04-30T02:49:02.352Z,59.50
2018-04-30T02:51:31.387Z,59.70
2018-04-30T02:53:59.640Z,59.70
2018-04-30T02:56:28.518Z,60.30
2018-04-30T02:58:57.400Z,60.40
2018-04-30T03:01:26.370Z,60.30
2018-04-30T03:03:54.524Z,60.30
2018-04-30T03:06:22.652Z,60.60
2018-04-30T03:08:51.557Z,60.90
2018-04-30T03:11:19.715Z,60.90
2018-04-30T03:13:47.901Z,61.20
2018-04-30T03:16:16.043Z,61.10
2018-04-30T03:18:44.160Z,60.80
2018-04-30T03:21:12.324Z,61.10
2018-04-30T03:23:40.461Z,60.90
2018-04-30T03:26:09.391Z,60.80
2018-04-30T03:28:37.543Z,60.80
2018-04-30T03:31:05.671Z,60.50
2018-04-30T03:33:33.812Z,60.50
2018-04-30T03:36:01.966Z,60.20
2018-04-30T03:38:30.084Z,60.00
2018-04-30T03:40:58.265Z,60.00
2018-04-30T03:43:26.422Z,59.40
2018-04-30T03:45:54.557Z,59.30
2018-04-30T03:48:22.768Z,58.80
2018-04-30T03:50:50.927Z,58.50
2018-04-30T03:53:19.069Z,57.90
2018-04-30T03:55:47.229Z,57.00
2018-04-30T03:58:16.116Z,57.10
2018-04-30T04:01:03.061Z,57.20
2018-04-30T04:03:49.070Z,57.10
2018-04-30T04:09:33.700Z,56.00
2018-04-30T04:12:02.966Z,56.50
2018-04-30T04:14:31.116Z,56.40
2018-04-30T04:16:59.262Z,55.60
2018-04-30T04:19:27.384Z,55.00
2018-04-30T04:21:55.508Z,54.70
2018-04-30T04:24:23.672Z,54.10
2018-04-30T04:26:51.778Z,54.00
2018-04-30T04:29:19.927Z,53.70
2018-04-30T04:31:48.933Z,53.10
2018-04-30T04:34:17.084Z,53.00
2018-04-30T04:36:45.205Z,52.40
2018-04-30T04:39:13.322Z,52.00
2018-04-30T04:41:41.593Z,51.50
2018-04-30T04:44:09.702Z,51.20
2018-04-30T04:46:37.825Z,50.50
2018-04-30T04:49:06.821Z,49.60
2018-04-30T04:51:35.700Z,49.00
2018-04-30T04:54:03.817Z,49.00
2018-04-30T04:56:31.961Z,48.20
2018-04-30T04:59:00.890Z,46.20
2018-04-30T05:01:29.039Z,46.20
2018-04-30T05:03:57.172Z,45.20
2018-04-30T05:06:25.284Z,45.20
2018-04-30T05:08:53.466Z,45.60
2018-04-30T05:11:21.620Z,45.30
2018-04-30T05:13:49.771Z,45.30
2018-04-30T05:16:18.702Z,45.60
2018-04-30T05:18:46.858Z,45.60
2018-04-30T05:21:14.977Z,45.60
2018-04-30T05:23:43.109Z,45.10
2018-04-30T05:26:11.285Z,44.30
2018-04-30T05:28:39.482Z,44.20
2018-04-30T05:31:07.635Z,43.90
2018-04-30T05:33:35.786Z,43.20
2018-04-30T05:36:03.933Z,42.20
2018-04-30T05:38:32.052Z,42.00
2018-04-30T05:41:00.610Z,41.60
2018-04-30T05:43:28.732Z,40.40
2018-04-30T05:45:56.875Z,39.90
2018-04-30T05:48:25.062Z,40.00
2018-04-30T05:50:53.205Z,38.90
2018-04-30T05:53:21.325Z,39.00
2018-04-30T05:55:49.581Z,38.60
2018-04-30T05:58:17.781Z,38.40
2018-04-30T06:00:45.960Z,39.10
2018-04-30T06:03:14.083Z,38.20
2018-04-30T06:05:42.269Z,37.50
2018-04-30T06:08:10.441Z,38.10
2018-04-30T06:10:38.588Z,37.90
2018-04-30T06:13:06.766Z,38.40
2018-04-30T06:15:34.892Z,38.30
2018-04-30T06:18:03.050Z,38.60
2018-04-30T06:20:32.005Z,37.80
2018-04-30T06:23:00.117Z,38.10
2018-04-30T06:25:28.244Z,38.60
2018-04-30T06:27:56.370Z,38.60
2018-04-30T06:30:24.541Z,38.50
2018-04-30T06:32:52.761Z,38.40
2018-04-30T06:35:20.899Z,37.60
2018-04-30T06:37:49.037Z,37.80
2018-04-30T06:40:17.235Z,38.40
2018-04-30T06:42:45.373Z,36.70
2018-04-30T06:45:14.607Z,37.00
2018-04-30T06:47:42.781Z,36.50
2018-04-30T06:50:10.896Z,36.50
2018-04-30T06:52:39.049Z,35.90
2018-04-30T06:55:07.960Z,36.40
2018-04-30T06:57:36.085Z,36.30
2018-04-30T07:00:04.268Z,37.10
2018-04-30T07:02:33.009Z,37.70
2018-04-30T07:05:01.193Z,37.30
2018-04-30T07:07:29.385Z,36.90
2018-04-30T07:09:57.511Z,37.60
2018-04-30T07:12:25.649Z,37.90
2018-04-30T07:14:53.907Z,37.40
2018-04-30T07:17:22.053Z,36.40
2018-04-30T07:19:50.216Z,37.50
2018-04-30T07:22:18.362Z,36.90
2018-04-30T07:24:46.517Z,37.40
2018-04-30T07:27:15.443Z,36.50
2018-04-30T07:29:43.605Z,36.50
2018-04-30T07:32:11.745Z,36.50
2018-04-30T07:34:39.890Z,36.60
2018-04-30T07:37:08.071Z,36.50
2018-04-30T07:39:36.247Z,36.50
2018-04-30T07:42:04.419Z,36.60
2018-04-30T07:44:32.598Z,36.80
2018-04-30T07:47:00.794Z,36.70
2018-04-30T07:49:29.732Z,37.40
2018-04-30T07:51:57.917Z,37.30
2018-04-30T07:54:26.040Z,37.20
2018-04-30T07:56:54.967Z,37.50
2018-04-30T07:59:23.120Z,38.60
2018-04-30T08:01:51.274Z,37.60
2018-04-30T08:04:20.198Z,36.80
2018-04-30T08:06:48.382Z,36.80
2018-04-30T08:09:16.501Z,36.90
2018-04-30T08:11:45.409Z,36.50
2018-04-30T08:14:14.646Z,36.30
2018-04-30T08:16:42.767Z,36.30
2018-04-30T08:19:11.652Z,36.10
2018-04-30T08:21:40.601Z,36.50
2018-04-30T08:24:08.717Z,36.50
2018-04-30T08:26:37.605Z,35.30
2018-04-30T08:29:06.558Z,34.40
2018-04-30T08:31:34.773Z,34.40
2018-04-30T08:34:04.226Z,35.10
2018-04-30T08:36:32.485Z,35.10
2018-04-30T08:39:02.557Z,32.60
2018-04-30T08:41:31.498Z,33.40
2018-04-30T08:43:59.612Z,33.30
2018-04-30T08:46:27.847Z,32.90
2018-04-30T08:48:56.157Z,33.30
2018-04-30T08:51:24.273Z,33.40
2018-04-30T08:53:52.429Z,32.20
2018-04-30T08:56:20.588Z,31.40
2018-04-30T08:58:49.496Z,30.40
2018-04-30T09:01:17.620Z,30.40
2018-04-30T09:03:45.759Z,30.20
2018-04-30T09:06:14.677Z,28.80
2018-04-30T09:08:42.800Z,29.00
2018-04-30T09:11:11.742Z,27.40
2018-04-30T09:13:39.878Z,27.30
2018-04-30T09:16:08.030Z,27.30
2018-04-30T09:18:36.975Z,28.30
2018-04-30T09:21:05.097Z,28.10
2018-04-30T09:23:34.011Z,25.60
2018-04-30T09:26:02.186Z,25.30
2018-04-30T09:28:30.346Z,25.20
2018-04-30T09:30:58.472Z,25.30
2018-04-30T09:33:26.645Z,24.80
2018-04-30T09:35:55.934Z,25.50
2018-04-30T09:38:24.078Z,25.20
2018-04-30T09:40:52.216Z,25.10
2018-04-30T09:43:21.181Z,23.90
2018-04-30T09:45:49.348Z,23.90
2018-04-30T09:48:17.522Z,24.20
2018-04-30T09:50:45.637Z,23.20
2018-04-30T09:53:13.752Z,23.90
2018-04-30T09:55:42.094Z,24.30
2018-04-30T09:58:10.277Z,24.80
2018-04-30T10:00:38.398Z,24.20
2018-04-30T10:03:06.636Z,23.70
2018-04-30T10:05:34.792Z,24.70
2018-04-30T10:08:02.968Z,26.90
2018-04-30T10:10:31.150Z,28.30
2018-04-30T10:12:59.314Z,28.00
2018-04-30T10:15:27.456Z,27.90
2018-04-30T10:17:56.369Z,30.20
2018-04-30T10:20:24.526Z,30.20
2018-04-30T10:22:52.698Z,31.70
2018-04-30T10:25:20.850Z,31.60
2018-04-30T10:27:49.768Z,31.30
2018-04-30T10:30:18.091Z,31.20
2018-04-30T10:32:46.205Z,30.30
2018-04-30T10:35:15.113Z,29.20
2018-04-30T10:37:43.407Z,29.10
2018-04-30T10:40:12.294Z,32.00
2018-04-30T10:42:40.436Z,30.90
2018-04-30T10:45:09.357Z,31.60
2018-04-30T10:47:37.507Z,31.60
2018-04-30T10:50:05.654Z,31.80
2018-04-30T10:52:34.569Z,31.20
2018-04-30T10:55:02.790Z,31.20
2018-04-30T10:57:31.042Z,31.30
2018-04-30T10:59:59.193Z,31.60
2018-04-30T11:02:27.474Z,30.10
2018-04-30T11:04:55.649Z,29.80
2018-04-30T11:07:23.767Z,30.70
2018-04-30T11:09:52.401Z,32.00
2018-04-30T11:12:20.640Z,31.80
2018-04-30T11:14:48.735Z,33.00
2018-04-30T11:17:17.146Z,33.20
2018-04-30T11:19:45.352Z,33.60
2018-04-30T11:22:14.252Z,31.70
2018-04-30T11:24:42.768Z,31.70
2018-04-30T11:27:10.904Z,29.50
2018-04-30T11:29:39.062Z,28.90
2018-04-30T11:32:07.214Z,29.20
2018-04-30T11:34:35.665Z,26.80
2018-04-30T11:37:03.825Z,26.30
2018-04-30T11:39:31.990Z,26.00
2018-04-30T11:42:00.392Z,25.10
2018-04-30T11:44:28.653Z,25.70
2018-04-30T11:46:56.793Z,26.30
2018-04-30T11:49:24.996Z,25.60
2018-04-30T11:51:53.120Z,26.10
2018-04-30T11:54:21.313Z,25.90
2018-04-30T11:56:50.589Z,26.00
2018-04-30T11:59:18.719Z,26.10
2018-04-30T12:01:46.893Z,24.70
2018-04-30T12:04:15.208Z,23.60
2018-04-30T12:06:43.370Z,24.00
2018-04-30T12:09:12.692Z,23.80
2018-04-30T12:11:40.823Z,25.00
2018-04-30T12:14:08.977Z,25.20
2018-04-30T12:16:37.132Z,25.30
2018-04-30T12:19:05.265Z,25.90
2018-04-30T12:21:33.414Z,28.80
2018-04-30T12:24:01.561Z,31.80
2018-04-30T12:26:29.700Z,31.60
2018-04-30T12:28:57.827Z,33.10
2018-04-30T12:31:26.026Z,34.60
2018-04-30T12:33:54.163Z,32.30
2018-04-30T12:36:22.316Z,30.20
2018-04-30T12:38:50.509Z,25.40
2018-04-30T12:41:18.628Z,24.80
2018-04-30T12:43:46.871Z,21.60
2018-04-30T12:46:15.801Z,15.20
2018-04-30T12:48:43.935Z,15.20
2018-04-30T12:51:12.081Z,14.80
2018-04-30T12:53:40.226Z,14.70
2018-04-30T12:56:08.383Z,15.70
2018-04-30T12:58:36.572Z,17.30
2018-04-30T13:01:04.758Z,17.90
2018-04-30T13:03:33.702Z,15.60
2018-04-30T13:06:01.847Z,15.60
2018-04-30T13:08:30.018Z,12.70
2018-04-30T13:10:58.169Z,10.20
2018-04-30T13:13:26.333Z,9.30
2018-04-30T13:15:55.237Z,7.70
2018-04-30T13:18:23.406Z,7.60
2018-04-30T13:20:52.284Z,8.50
2018-04-30T13:23:20.450Z,8.50
2018-04-30T13:25:48.808Z,7.10
2018-04-30T13:28:16.945Z,7.00
2018-04-30T13:30:45.138Z,7.20
2018-04-30T13:33:13.311Z,8.40
2018-04-30T13:35:41.461Z,9.90
2018-04-30T13:38:09.642Z,9.70
2018-04-30T13:40:37.803Z,8.60
2018-04-30T13:43:05.941Z,10.00
2018-04-30T13:45:34.873Z,9.80
2018-04-30T13:48:02.988Z,8.80
2018-04-30T13:50:31.101Z,8.70
2018-04-30T13:52:59.285Z,10.00
2018-04-30T13:55:27.404Z,12.10
2018-04-30T13:57:55.628Z,12.70
2018-04-30T14:00:23.820Z,11.40
2018-04-30T14:02:52.625Z,10.10
2018-04-30T14:05:21.074Z,9.90
2018-04-30T14:07:49.217Z,10.60
2018-04-30T14:10:18.202Z,13.40
2018-04-30T14:12:46.352Z,13.50
2018-04-30T14:15:14.460Z,13.50
2018-04-30T14:17:43.519Z,13.80
2018-04-30T14:20:11.656Z,13.80
2018-04-30T14:22:39.814Z,14.90
2018-04-30T14:25:07.957Z,15.50
2018-04-30T14:27:36.909Z,15.40
2018-04-30T14:30:05.063Z,15.40
2018-04-30T14:32:33.209Z,13.60
2018-04-30T14:35:02.211Z,10.60
2018-04-30T14:37:30.331Z,10.60
2018-04-30T14:39:58.502Z,10.50
2018-04-30T14:42:26.679Z,10.50
2018-04-30T14:44:54.851Z,9.40
2018-04-30T14:47:22.972Z,8.20
2018-04-30T14:49:52.641Z,9.00
2018-04-30T14:52:20.821Z,9.00
2018-04-30T14:54:48.953Z,7.90
2018-04-30T14:57:17.319Z,8.10
2018-04-30T14:59:45.494Z,7.30
2018-04-30T15:02:13.640Z,5.90
2018-04-30T15:04:41.769Z,5.80
2018-04-30T15:07:09.896Z,6.40
2018-04-30T15:09:38.059Z,4.70
2018-04-30T15:12:06.261Z,5.30
2018-04-30T15:14:34.384Z,5.60
2018-04-30T15:17:03.292Z,6.30
2018-04-30T15:19:32.209Z,6.10
2018-04-30T15:22:00.366Z,6.00
2018-04-30T15:24:28.686Z,5.80
2018-04-30T15:26:57.629Z,5.50
2018-04-30T15:29:25.770Z,5.50
2018-04-30T15:31:54.132Z,6.20
2018-04-30T15:34:22.436Z,5.50
2018-04-30T15:36:51.784Z,4.50
2018-04-30T15:39:19.977Z,4.50
2018-04-30T15:41:48.147Z,4.40
2018-04-30T15:44:16.284Z,3.70
2018-04-30T15:46:44.448Z,4.30
2018-04-30T15:49:13.137Z,3.00
2018-04-30T15:51:41.234Z,3.80
2018-04-30T15:54:11.109Z,4.50
2018-04-30T15:56:39.295Z,5.40
2018-04-30T15:59:07.442Z,5.80
2018-04-30T16:01:36.350Z,5.00
2018-04-30T16:04:04.514Z,5.00
2018-04-30T16:06:32.677Z,5.00
2018-04-30T16:09:01.592Z,6.80
2018-04-30T16:11:29.724Z,6.80
2018-04-30T16:13:58.142Z,5.90
2018-04-30T16:16:26.435Z,6.10
2018-04-30T16:18:54.593Z,6.40
2018-04-30T16:21:22.744Z,8.10
2018-04-30T16:23:51.673Z,7.70
2018-04-30T16:26:19.792Z,7.60
2018-04-30T16:28:48.004Z,6.50
2018-04-30T16:31:16.203Z,7.00
2018-04-30T16:33:44.356Z,7.90
2018-04-30T16:36:12.468Z,7.00
2018-04-30T16:38:40.613Z,6.30
2018-04-30T16:41:08.762Z,6.40
2018-04-30T16:43:36.881Z,6.20
2018-04-30T16:46:05.021Z,8.20
2018-04-30T16:48:33.129Z,8.80
2018-04-30T16:51:01.282Z,9.80
2018-04-30T16:53:29.457Z,10.60
2018-04-30T16:55:57.628Z,10.60
2018-04-30T16:58:25.774Z,10.10
2018-04-30T17:00:53.904Z,9.90
2018-04-30T17:03:22.052Z,10.70
2018-04-30T17:05:50.194Z,11.80
2018-04-30T17:08:18.338Z,12.90
2018-04-30T17:10:47.242Z,14.70
2018-04-30T17:13:15.357Z,14.70
2018-04-30T17:15:43.493Z,15.40
2018-04-30T17:18:11.605Z,16.10
2018-04-30T17:20:39.750Z,16.40
2018-04-30T17:23:07.928Z,16.70
2018-04-30T17:25:36.073Z,16.20
2018-04-30T17:28:04.252Z,14.70
2018-04-30T17:30:32.461Z,13.90
2018-04-30T17:33:00.554Z,12.40
2018-04-30T17:35:28.693Z,11.20
2018-04-30T17:37:56.879Z,10.90
2018-04-30T17:40:25.070Z,10.40
2018-04-30T17:42:53.372Z,10.40
2018-04-30T17:45:21.508Z,10.50
2018-04-30T17:47:49.677Z,11.10
2018-04-30T17:50:17.846Z,12.10
2018-04-30T17:52:46.007Z,13.10
2018-04-30T17:55:14.174Z,13.80
2018-04-30T17:57:42.284Z,14.70
2018-04-30T18:00:10.437Z,14.40
2018-04-30T18:02:38.577Z,15.00
2018-04-30T18:05:06.693Z,15.60
2018-04-30T18:07:34.810Z,16.30
2018-04-30T18:10:02.937Z,16.70
2018-04-30T18:12:31.145Z,16.90
2018-04-30T18:15:00.169Z,17.20
2018-04-30T18:17:28.325Z,17.20
2018-04-30T18:19:56.525Z,17.10
2018-04-30T18:22:24.710Z,17.90
2018-04-30T18:24:52.831Z,17.70
2018-04-30T18:27:20.977Z,18.00
2018-04-30T18:29:49.114Z,18.20
2018-04-30T18:32:17.257Z,18.00
2018-04-30T18:34:45.386Z,18.30
2018-04-30T18:37:13.589Z,18.50
2018-04-30T18:39:42.476Z,19.00
2018-04-30T18:42:11.398Z,19.30
2018-04-30T18:44:39.582Z,19.40
2018-04-30T18:47:07.830Z,19.50
2018-04-30T18:49:36.006Z,19.50
2018-04-30T18:52:04.239Z,19.70
2018-04-30T18:54:33.160Z,20.00
2018-04-30T18:57:01.403Z,20.00
2018-04-30T18:59:29.553Z,20.20
2018-04-30T19:01:57.673Z,21.30
2018-04-30T19:04:26.573Z,21.60
2018-04-30T19:06:54.688Z,21.60
2018-04-30T19:09:22.796Z,21.50
2018-04-30T19:11:51.788Z,22.30
2018-04-30T19:14:21.115Z,22.10
2018-04-30T19:16:49.993Z,22.50
2018-04-30T19:19:18.201Z,22.50
2018-04-30T19:21:46.354Z,22.50
2018-04-30T19:24:14.522Z,22.90
2018-04-30T19:26:42.678Z,23.40
2018-04-30T19:29:10.860Z,23.20
2018-04-30T19:31:39.032Z,23.90
2018-04-30T19:34:07.140Z,24.40
2018-04-30T19:36:35.454Z,24.40
2018-04-30T19:39:04.373Z,25.20
2018-04-30T19:41:32.898Z,25.20
2018-04-30T19:44:01.081Z,25.40
2018-04-30T19:46:29.258Z,25.20
2018-04-30T19:48:57.409Z,25.30
2018-04-30T19:51:25.544Z,25.60
2018-04-30T19:53:53.705Z,25.80
2018-04-30T19:56:22.585Z,26.90
2018-04-30T19:58:52.417Z,27.10
2018-04-30T20:01:20.639Z,27.10
2018-04-30T20:03:48.753Z,26.90
2018-04-30T20:06:17.629Z,27.50
2018-04-30T20:08:46.561Z,27.90
2018-04-30T20:11:14.705Z,27.90
2018-04-30T20:13:43.589Z,28.30
2018-04-30T20:16:12.521Z,29.10
2018-04-30T20:18:40.687Z,29.10
2018-04-30T20:21:08.833Z,29.50
2018-04-30T20:23:37.022Z,29.80
2018-04-30T20:26:05.177Z,30.10
2018-04-30T20:28:34.080Z,31.40
2018-04-30T20:31:02.217Z,31.30
2018-04-30T20:33:30.340Z,31.20
2018-04-30T20:35:58.477Z,32.00
2018-04-30T20:38:27.376Z,32.20
2018-04-30T20:40:55.558Z,32.30
2018-04-30T20:43:23.687Z,32.90
2018-04-30T20:45:51.813Z,33.10
2018-04-30T20:48:19.961Z,33.00
2018-04-30T20:50:48.833Z,33.50
2018-04-30T20:53:17.732Z,33.70
2018-04-30T20:55:46.647Z,34.10
2018-04-30T20:58:14.764Z,34.10
2018-04-30T21:00:42.923Z,34.00
2018-04-30T21:03:11.069Z,34.20
2018-04-30T21:05:39.184Z,33.90
2018-04-30T21:08:07.310Z,34.10
2018-04-30T21:10:35.500Z,34.60
2018-04-30T21:13:03.650Z,35.20
2018-04-30T21:15:31.780Z,35.30
2018-04-30T21:17:59.933Z,35.80
2018-04-30T21:20:28.081Z,35.90
2018-04-30T21:22:56.246Z,35.80
2018-04-30T21:25:24.404Z,36.40
2018-04-30T21:27:52.525Z,36.30
2018-04-30T21:30:20.685Z,36.40
2018-04-30T21:32:49.061Z,36.40
2018-04-30T21:35:17.186Z,36.70
2018-04-30T21:37:46.076Z,36.00
2018-04-30T21:40:15.027Z,36.40
2018-04-30T21:42:43.190Z,35.30
2018-04-30T21:45:11.327Z,34.80
2018-04-30T21:47:39.490Z,34.40
2018-04-30T21:50:07.629Z,33.30
2018-04-30T21:52:35.778Z,32.50
2018-04-30T21:55:03.942Z,32.00
2018-04-30T21:57:32.186Z,31.30
2018-04-30T22:00:00.349Z,31.10
2018-04-30T22:02:29.265Z,31.20
2018-04-30T22:04:57.409Z,31.10
2018-04-30T22:07:26.319Z,30.70
2018-04-30T22:09:54.519Z,30.60
2018-04-30T22:12:22.691Z,30.30
2018-04-30T22:14:50.817Z,30.00
2018-04-30T22:17:19.704Z,29.30
2018-04-30T22:19:48.621Z,29.10
2018-04-30T22:22:16.757Z,29.10
2018-04-30T22:24:44.910Z,28.70
2018-04-30T22:27:13.021Z,28.20
2018-04-30T22:29:41.337Z,28.30
2018-04-30T22:32:09.494Z,28.30
2018-04-30T22:34:37.630Z,28.40
2018-04-30T22:37:06.571Z,28.10
2018-04-30T22:39:34.687Z,28.20
2018-04-30T22:42:03.508Z,28.20
2018-04-30T22:44:31.671Z,28.10
2018-04-30T22:46:59.795Z,29.00
2018-04-30T22:49:27.949Z,30.20
2018-04-30T22:51:56.078Z,31.10
2018-04-30T22:54:24.964Z,33.20
2018-04-30T22:56:53.876Z,34.40
2018-04-30T22:59:22.019Z,34.30
2018-04-30T23:01:51.642Z,35.80
2018-04-30T23:04:19.814Z,35.80
2018-04-30T23:06:47.969Z,36.60
2018-04-30T23:09:16.886Z,37.60
2018-04-30T23:11:45.024Z,37.60
2018-04-30T23:14:13.145Z,38.10
2018-04-30T23:16:41.263Z,38.90
2018-04-30T23:19:09.442Z,37.90
2018-04-30T23:21:38.332Z,38.00
2018-04-30T23:24:06.449Z,37.90
2018-04-30T23:26:34.645Z,38.00
2018-04-30T23:29:02.770Z,38.50
2018-04-30T23:31:31.710Z,38.80
2018-04-30T23:33:59.887Z,38.80
2018-04-30T23:36:28.040Z,39.10
2018-04-30T23:38:56.168Z,39.60
2018-04-30T23:41:25.107Z,40.20
2018-04-30T23:43:53.258Z,40.20
2018-04-30T23:46:21.450Z,40.30
2018-04-30T23:48:49.608Z,41.00
2018-04-30T23:51:17.749Z,40.90
2018-04-30T23:53:46.662Z,41.50
2018-04-30T23:56:14.865Z,41.50
2018-04-30T23:58:43.057Z,42.30
